Time;durP1;ratioP1;P1;durP2;ratioP2;P2;SDS_P1;SDS_P2;PMS_P1;PMS_P2;Temp;Humidity;BMP_temperature;BMP_pressure;BME280_temperature;BME280_humidity;BME280_pressure;Samples;Min_cycle;Max_cycle;Signal;HPM_P1;HPM_P2
2022/10/20 00:00:22;;;;;;;;;;;;;;;;;;1044169;28;2581;-53
2022/10/20 00:01:13;;;;;;;;;;;;;;;;;;1039437;28;2664;-58
2022/10/20 00:01:44;;;;;;;;;;;;;;;;;;1041922;28;2493;-56
2022/10/20 00:02:15;;;;;;;;;;;;;;;;;;1044922;28;2651;-57
2022/10/20 00:02:45;;;;;;;;;;;;;;;;;;1047104;28;2785;-58
2022/10/20 00:03:15;;;;;;;;;;;;;;;;;;1049042;28;2617;-52
2022/10/20 00:03:46;;;;;;;;;;;;;;;;;;1052445;28;2331;-58
2022/10/20 00:04:29;;;;;;;;;;;;;;;;;;1050049;28;3008;-58
2022/10/20 00:05:07;;;;;;;;;;;;;;;;;;1053183;28;2661;-58
2022/10/20 00:05:37;;;;;;;;;;;;;;;;;;1052411;28;2469;-52
2022/10/20 00:06:09;;;;;;;;;;;;;;;;;;1048142;28;2711;-53
2022/10/20 00:06:40;;;;;;;;;;;;;;;;;;1050920;28;2442;-53
2022/10/20 00:07:11;;;;;;;;;;;;;;;;;;1048515;28;2105;-53
2022/10/20 00:07:41;;;;;;;;;;;;;;;;;;1047594;28;1572;-55
2022/10/20 00:08:11;;;;;;;;;;;;;;;;;;1054384;28;2273;-54
2022/10/20 00:08:42;;;;;;;;;;;;;;;;;;1051568;28;3959;-57
2022/10/20 00:09:13;;;;;;;;;;;;;;;;;;1049252;28;2497;-55
2022/10/20 00:09:44;;;;;;;;;;;;;;;;;;1045286;28;2440;-55
2022/10/20 00:10:14;;;;;;;;;;;;;;;;;;1046589;28;1932;-55
2022/10/20 00:10:54;;;;;;;;;;;;;;;;;;1045031;28;2355;-54
2022/10/20 00:11:24;;;;;;;;;;;;;;;;;;1044811;28;2573;-53
2022/10/20 00:11:55;;;;;;;;;;;;;;;;;;1044503;28;1923;-55
2022/10/20 00:12:25;;;;;;;;;;;;;;;;;;1039387;28;2197;-54
2022/10/20 00:12:56;;;;;;;;;;;;;;;;;;1036263;28;2520;-56
2022/10/20 00:13:26;;;;;;;;;;;;;;;;;;1046422;28;2915;-56
2022/10/20 00:13:57;;;;;;;;;;;;;;;;;;1045102;28;2187;-56
2022/10/20 00:14:27;;;;;;;;;;;;;;;;;;1046830;28;2627;-57
2022/10/20 00:14:58;;;;;;;;;;;;;;;;;;1052162;28;2509;-54
2022/10/20 00:15:28;;;;;;;;;;;;;;;;;;1046986;28;2266;-57
2022/10/20 00:15:59;;;;;;;;;;;;;;;;;;1048546;28;2407;-54
2022/10/20 00:16:30;;;;;;;;;;;;;;;;;;1045487;28;2575;-54
2022/10/20 00:17:01;;;;;;;;;;;;;;;;;;1043723;28;2499;-56
2022/10/20 00:17:31;;;;;;;;;;;;;;;;;;1048823;28;2562;-54
2022/10/20 00:18:02;;;;;;;;;;;;;;;;;;1049365;28;2292;-55
2022/10/20 00:18:33;;;;;;;;;;;;;;;;;;1048316;28;2393;-54
2022/10/20 00:19:03;;;;;;;;;;;;;;;;;;1048920;28;2354;-56
2022/10/20 00:19:33;;;;;;;;;;;;;;;;;;1047721;28;2959;-54
2022/10/20 00:20:04;;;;;;;;;;;;;;;;;;1047948;28;3417;-56
2022/10/20 00:20:38;;;;;;;;;;;;;;;;;;1052403;28;2818;-55
2022/10/20 00:21:09;;;;;;;;;;;;;;;;;;1053466;28;2735;-55
2022/10/20 00:21:40;;;;;;;;;;;;;;;;;;1052862;28;2307;-55
2022/10/20 00:22:10;;;;;;;;;;;;;;;;;;1051486;28;2951;-57
2022/10/20 00:22:40;;;;;;;;;;;;;;;;;;1052120;28;2543;-52
2022/10/20 00:23:11;;;;;;;;;;;;;;;;;;1053599;28;2421;-56
2022/10/20 00:23:41;;;;;;;;;;;;;;;;;;1052976;28;2185;-56
2022/10/20 00:24:12;;;;;;;;;;;;;;;;;;1047871;28;2564;-56
2022/10/20 00:24:42;;;;;;;;;;;;;;;;;;1043687;28;2575;-54
2022/10/20 00:25:13;;;;;;;;;;;;;;;;;;1045268;28;2475;-53
2022/10/20 00:25:43;;;;;;;;;;;;;;;;;;1044187;28;2676;-57
2022/10/20 00:26:14;;;;;;;;;;;;;;;;;;1049864;28;2442;-52
2022/10/20 00:26:45;;;;;;;;;;;;;;;;;;1052906;28;2400;-54
2022/10/20 00:27:15;;;;;;;;;;;;;;;;;;1052087;28;1598;-55
2022/10/20 00:27:45;;;;;;;;;;;;;;;;;;1051723;28;2497;-53
2022/10/20 00:28:16;;;;;;;;;;;;;;;;;;1052521;28;2561;-55
2022/10/20 00:28:46;;;;;;;;;;;;;;;;;;1052254;28;2430;-56
2022/10/20 00:29:24;;;;;;;;;;;;;;;;;;1052822;28;2041;-53
2022/10/20 00:29:55;;;;;;;;;;;;;;;;;;1047665;28;2127;-56
2022/10/20 00:30:25;;;;;;;;;;;;;;;;;;1047582;28;2415;-56
2022/10/20 00:30:55;;;;;;;;;;;;;;;;;;1046735;28;3016;-56
2022/10/20 00:31:26;;;;;;;;;;;;;;;;;;1047887;28;2483;-57
2022/10/20 00:31:57;;;;;;;;;;;;;;;;;;1052549;28;2423;-54
2022/10/20 00:32:29;;;;;;;;;;;;;;;;;;1055685;28;1689;-56
2022/10/20 00:32:59;;;;;;;;;;;;;;;;;;1051120;28;2797;-52
2022/10/20 00:33:30;;;;;;;;;;;;;;;;;;1052418;28;2390;-56
2022/10/20 00:34:00;;;;;;;;;;;;;;;;;;1052083;28;1898;-56
2022/10/20 00:34:31;;;;;;;;;;;;;;;;;;1054929;28;2114;-52
2022/10/20 00:35:02;;;;;;;;;;;;;;;;;;1053995;28;2314;-57
2022/10/20 00:35:32;;;;;;;;;;;;;;;;;;1052400;28;2413;-55
2022/10/20 00:36:05;;;;;;;;;;;;;;;;;;1043863;28;2801;-52
2022/10/20 00:36:35;;;;;;;;;;;;;;;;;;1041617;28;2268;-57
2022/10/20 00:37:05;;;;;;;;;;;;;;;;;;1043626;28;2185;-51
2022/10/20 00:37:36;;;;;;;;;;;;;;;;;;1037517;28;2059;-58
2022/10/20 00:38:06;;;;;;;;;;;;;;;;;;1047303;28;2385;-56
2022/10/20 00:38:37;;;;;;;;;;;;;;;;;;1047962;28;2482;-53
2022/10/20 00:39:08;;;;;;;;;;;;;;;;;;1047452;28;2147;-56
2022/10/20 00:39:38;;;;;;;;;;;;;;;;;;1043113;28;2507;-57
2022/10/20 00:40:09;;;;;;;;;;;;;;;;;;1043046;28;2630;-54
2022/10/20 00:40:39;;;;;;;;;;;;;;;;;;1041122;28;2099;-57
2022/10/20 00:41:13;;;;;;;;;;;;;;;;;;1047977;28;1685;-56
2022/10/20 00:41:43;;;;;;;;;;;;;;;;;;1048297;28;2172;-55
2022/10/20 00:42:15;;;;;;;;;;;;;;;;;;1053293;28;1580;-54
2022/10/20 00:42:46;;;;;;;;;;;;;;;;;;1052219;28;1469;-55
2022/10/20 00:43:17;;;;;;;;;;;;;;;;;;1055046;28;1972;-56
2022/10/20 00:43:50;;;;;;;;;;;;;;;;;;1052749;28;2452;-55
2022/10/20 00:44:39;;;;;;;;;;;;;;;;;;1045654;28;2416;-55
2022/10/20 00:45:14;;;;;;;;;;;;;;;;;;1046093;28;2669;-56
2022/10/20 00:45:49;;;;;;;;;;;;;;;;;;1043051;28;2276;-57
2022/10/20 00:46:21;;;;;;;;;;;;;;;;;;1051036;28;2578;-56
2022/10/20 00:46:52;;;;;;;;;;;;;;;;;;1045612;28;2066;-54
2022/10/20 00:47:26;;;;;;;;;;;;;;;;;;1044939;28;2533;-53
2022/10/20 00:48:03;;;;;;;;;;;;;;;;;;1042691;28;2162;-55
2022/10/20 00:48:33;;;;;;;;;;;;;;;;;;1041703;28;2314;-57
2022/10/20 00:49:24;;;;;;;;;;;;;;;;;;1050697;28;2525;-56
2022/10/20 00:49:56;;;;;;;;;;;;;;;;;;1047262;28;2100;-56
2022/10/20 00:50:32;;;;;;;;;;;;;;;;;;1048646;28;2501;-57
2022/10/20 00:51:03;;;;;;;;;;;;;;;;;;1047959;28;2261;-53
2022/10/20 00:51:34;;;;;;;;;;;;;;;;;;1042180;28;2252;-55
2022/10/20 00:52:07;;;;;;;;;;;;;;;;;;1041219;28;2523;-55
2022/10/20 00:52:39;;;;;;;;;;;;;;;;;;1042540;28;2289;-53
2022/10/20 00:53:09;;;;;;;;;;;;;;;;;;1042546;28;2030;-53
2022/10/20 00:53:41;;;;;;;;;;;;;;;;;;1040125;28;2294;-55
2022/10/20 00:54:14;;;;;;;;;;;;;;;;;;1048829;28;2511;-55
2022/10/20 00:54:44;;;;;;;;;;;;;;;;;;1054146;28;2519;-57
2022/10/20 00:55:18;;;;;;;;;;;;;;;;;;1052780;28;2501;-57
2022/10/20 00:55:50;;;;;;;;;;;;;;;;;;1047566;28;2446;-56
2022/10/20 00:56:21;;;;;;;;;;;;;;;;;;1046775;28;3754;-55
2022/10/20 00:56:51;;;;;;;;;;;;;;;;;;1048637;28;2667;-54
2022/10/20 00:57:22;;;;;;;;;;;;;;;;;;1048409;28;2135;-54
2022/10/20 00:57:54;;;;;;;;;;;;;;;;;;1053492;28;1586;-54
2022/10/20 00:58:25;;;;;;;;;;;;;;;;;;1051082;28;2460;-55
2022/10/20 00:58:56;;;;;;;;;;;;;;;;;;1053829;28;2101;-56
2022/10/20 00:59:28;;;;;;;;;;;;;;;;;;1044449;28;2162;-53
2022/10/20 00:59:58;;;;;;;;;;;;;;;;;;1042963;28;2225;-56
2022/10/20 01:00:30;;;;;;;;;;;;;;;;;;1037709;28;2061;-55
2022/10/20 01:01:00;;;;;;;;;;;;;;;;;;1038212;28;2152;-54
2022/10/20 01:01:31;;;;;;;;;;;;;;;;;;1042709;28;2513;-55
2022/10/20 01:02:02;;;;;;;;;;;;;;;;;;1045265;28;2242;-56
2022/10/20 01:02:32;;;;;;;;;;;;;;;;;;1053328;28;2261;-56
2022/10/20 01:03:03;;;;;;;;;;;;;;;;;;1053394;28;2099;-54
2022/10/20 01:03:36;;;;;;;;;;;;;;;;;;1053366;28;1641;-56
2022/10/20 01:04:07;;;;;;;;;;;;;;;;;;1052132;28;2408;-57
2022/10/20 01:04:51;;;;;;;;;;;;;;;;;;1045271;28;2322;-53
2022/10/20 01:05:29;;;;;;;;;;;;;;;;;;1045235;28;2073;-54
2022/10/20 01:05:59;;;;;;;;;;;;;;;;;;1045492;28;2589;-56
2022/10/20 01:06:29;;;;;;;;;;;;;;;;;;1047264;28;2049;-55
2022/10/20 01:06:59;;;;;;;;;;;;;;;;;;1047812;28;2022;-54
2022/10/20 01:07:30;;;;;;;;;;;;;;;;;;1049723;28;2473;-52
2022/10/20 01:08:00;;;;;;;;;;;;;;;;;;1047836;28;2497;-57
2022/10/20 01:08:31;;;;;;;;;;;;;;;;;;1044868;28;2126;-55
2022/10/20 01:09:02;;;;;;;;;;;;;;;;;;1045992;28;2332;-54
2022/10/20 01:09:33;;;;;;;;;;;;;;;;;;1036040;28;2509;-56
2022/10/20 01:10:04;;;;;;;;;;;;;;;;;;1036443;28;3182;-53
2022/10/20 01:10:39;;;;;;;;;;;;;;;;;;1044781;28;2715;-55
2022/10/20 01:11:26;;;;;;;;;;;;;;;;;;1046012;28;2458;-54
2022/10/20 01:12:15;;;;;;;;;;;;;;;;;;1048076;28;1814;-56
2022/10/20 01:12:56;;;;;;;;;;;;;;;;;;1049517;28;2118;-55
2022/10/20 01:13:53;;;;;;;;;;;;;;;;;;1049135;28;2426;-55
2022/10/20 01:14:34;;;;;;;;;;;;;;;;;;1033365;28;2751;-56
2022/10/20 01:15:06;;;;;;;;;;;;;;;;;;1040204;28;2720;-54
2022/10/20 01:15:47;;;;;;;;;;;;;;;;;;1048744;28;3468;-53
2022/10/20 01:16:24;;;;;;;;;;;;;;;;;;1049766;28;2512;-52
2022/10/20 01:16:56;;;;;;;;;;;;;;;;;;1043708;28;2449;-55
2022/10/20 01:17:45;;;;;;;;;;;;;;;;;;1045507;28;1961;-57
2022/10/20 01:18:18;;;;;;;;;;;;;;;;;;1045134;28;2754;-52
2022/10/20 01:18:52;;;;;;;;;;;;;;;;;;1047930;28;2163;-55
2022/10/20 01:19:23;;;;;;;;;;;;;;;;;;1048800;28;2161;-55
2022/10/20 01:19:54;;;;;;;;;;;;;;;;;;1046977;28;2062;-55
2022/10/20 01:20:44;;;;;;;;;;;;;;;;;;1044876;28;2736;-55
2022/10/20 01:21:20;;;;;;;;;;;;;;;;;;1046597;28;2244;-57
2022/10/20 01:21:58;;;;;;;;;;;;;;;;;;1046202;28;2534;-56
2022/10/20 01:22:54;;;;;;;;;;;;;;;;;;1047275;28;2546;-52
2022/10/20 01:23:27;;;;;;;;;;;;;;;;;;1048697;28;2468;-54
2022/10/20 01:24:08;;;;;;;;;;;;;;;;;;1046063;28;2437;-53
2022/10/20 01:24:48;;;;;;;;;;;;;;;;;;1048551;28;2280;-55
2022/10/20 01:25:31;;;;;;;;;;;;;;;;;;1046703;28;1903;-56
2022/10/20 01:26:04;;;;;;;;;;;;;;;;;;1049744;28;2666;-55
2022/10/20 01:26:43;;;;;;;;;;;;;;;;;;1048847;28;1471;-56
2022/10/20 01:27:31;;;;;;;;;;;;;;;;;;1049614;28;3045;-55
2022/10/20 01:28:05;;;;;;;;;;;;;;;;;;1048222;28;2435;-53
2022/10/20 01:28:46;;;;;;;;;;;;;;;;;;1048032;28;2502;-56
2022/10/20 01:29:27;;;;;;;;;;;;;;;;;;1048621;28;2241;-54
2022/10/20 01:30:09;;;;;;;;;;;;;;;;;;1047900;28;2490;-55
2022/10/20 01:30:43;;;;;;;;;;;;;;;;;;1047668;28;2318;-56
2022/10/20 01:31:34;;;;;;;;;;;;;;;;;;1048400;28;2004;-54
2022/10/20 01:32:12;;;;;;;;;;;;;;;;;;1046115;28;3046;-54
2022/10/20 01:32:48;;;;;;;;;;;;;;;;;;1048687;28;2471;-53
2022/10/20 01:33:37;;;;;;;;;;;;;;;;;;1048958;28;2510;-56
2022/10/20 01:34:11;;;;;;;;;;;;;;;;;;1047965;28;3062;-54
2022/10/20 01:34:42;;;;;;;;;;;;;;;;;;1039905;28;2579;-50
2022/10/20 01:35:19;;;;;;;;;;;;;;;;;;1038586;28;2450;-54
2022/10/20 01:36:12;;;;;;;;;;;;;;;;;;1044543;28;2071;-53
2022/10/20 01:36:43;;;;;;;;;;;;;;;;;;1039851;28;3216;-54
2022/10/20 01:37:37;;;;;;;;;;;;;;;;;;1043011;28;2727;-54
2022/10/20 01:38:33;;;;;;;;;;;;;;;;;;1040029;28;2532;-54
2022/10/20 01:39:16;;;;;;;;;;;;;;;;;;1047896;28;2410;-53
2022/10/20 01:39:52;;;;;;;;;;;;;;;;;;1047753;28;2477;-57
2022/10/20 01:40:28;;;;;;;;;;;;;;;;;;1047686;28;2377;-52
2022/10/20 01:41:08;;;;;;;;;;;;;;;;;;1047031;28;2640;-56
2022/10/20 01:41:42;;;;;;;;;;;;;;;;;;1048389;28;2229;-55
2022/10/20 01:42:16;;;;;;;;;;;;;;;;;;1050475;28;2104;-55
2022/10/20 01:42:49;;;;;;;;;;;;;;;;;;1047060;28;1965;-54
2022/10/20 01:43:21;;;;;;;;;;;;;;;;;;1049394;28;2195;-56
2022/10/20 01:43:52;;;;;;;;;;;;;;;;;;1049174;28;2149;-55
2022/10/20 01:44:23;;;;;;;;;;;;;;;;;;1048404;28;2949;-56
2022/10/20 01:44:55;;;;;;;;;;;;;;;;;;1048736;28;2923;-55
2022/10/20 01:45:27;;;;;;;;;;;;;;;;;;1047144;28;2394;-53
2022/10/20 01:45:58;;;;;;;;;;;;;;;;;;1050262;28;2238;-56
2022/10/20 01:46:29;;;;;;;;;;;;;;;;;;1050922;28;2160;-54
2022/10/20 01:47:00;;;;;;;;;;;;;;;;;;1048190;28;2647;-54
2022/10/20 01:47:31;;;;;;;;;;;;;;;;;;1037517;28;2418;-53
2022/10/20 01:48:04;;;;;;;;;;;;;;;;;;1036243;28;2149;-54
2022/10/20 01:48:36;;;;;;;;;;;;;;;;;;1040081;28;2437;-55
2022/10/20 01:49:07;;;;;;;;;;;;;;;;;;1038588;28;2978;-57
2022/10/20 01:49:41;;;;;;;;;;;;;;;;;;1044876;28;2197;-50
2022/10/20 01:50:13;;;;;;;;;;;;;;;;;;1046580;28;1735;-56
2022/10/20 01:50:45;;;;;;;;;;;;;;;;;;1044350;28;2666;-53
2022/10/20 01:51:16;;;;;;;;;;;;;;;;;;1044203;28;2397;-53
2022/10/20 01:51:46;;;;;;;;;;;;;;;;;;1041308;28;2118;-55
2022/10/20 01:52:17;;;;;;;;;;;;;;;;;;1044013;28;2282;-52
2022/10/20 01:52:47;;;;;;;;;;;;;;;;;;1044000;28;2389;-52
2022/10/20 01:53:18;;;;;;;;;;;;;;;;;;1049843;28;2187;-52
2022/10/20 01:53:48;;;;;;;;;;;;;;;;;;1049137;28;2626;-53
2022/10/20 01:54:20;;;;;;;;;;;;;;;;;;1047461;28;2530;-54
2022/10/20 01:54:51;;;;;;;;;;;;;;;;;;1047785;28;2673;-55
2022/10/20 01:55:21;;;;;;;;;;;;;;;;;;1050246;28;2284;-53
2022/10/20 01:55:52;;;;;;;;;;;;;;;;;;1047098;28;2030;-55
2022/10/20 01:56:28;;;;;;;;;;;;;;;;;;1046539;28;2388;-56
2022/10/20 01:57:18;;;;;;;;;;;;;;;;;;1047451;28;2197;-50
2022/10/20 01:58:14;;;;;;;;;;;;;;;;;;1047299;28;2367;-55
2022/10/20 01:58:55;;;;;;;;;;;;;;;;;;1048394;28;2193;-58
2022/10/20 01:59:26;;;;;;;;;;;;;;;;;;1048434;28;2491;-54
2022/10/20 02:00:05;;;;;;;;;;;;;;;;;;1049008;28;2448;-52
2022/10/20 02:00:36;;;;;;;;;;;;;;;;;;1047110;28;2605;-53
2022/10/20 02:01:14;;;;;;;;;;;;;;;;;;1046746;28;2382;-54
2022/10/20 02:01:51;;;;;;;;;;;;;;;;;;1050147;28;2012;-52
2022/10/20 02:02:24;;;;;;;;;;;;;;;;;;1043995;28;1563;-55
2022/10/20 02:03:13;;;;;;;;;;;;;;;;;;1044680;28;2058;-57
2022/10/20 02:03:52;;;;;;;;;;;;;;;;;;1046269;28;1653;-56
2022/10/20 02:05:00;;;;;;;;;;;;;;;;;;1047749;28;2580;-56
2022/10/20 02:05:56;;;;;;;;;;;;;;;;;;1052589;28;2047;-55
2022/10/20 02:06:27;;;;;;;;;;;;;;;;;;1052717;28;2093;-56
2022/10/20 02:07:03;;;;;;;;;;;;;;;;;;1049972;28;1996;-51
2022/10/20 02:07:34;;;;;;;;;;;;;;;;;;1047119;28;2286;-57
2022/10/20 02:08:14;;;;;;;;;;;;;;;;;;1039361;28;2482;-53
2022/10/20 02:08:52;;;;;;;;;;;;;;;;;;1040831;28;2135;-53
2022/10/20 02:09:34;;;;;;;;;;;;;;;;;;1041990;28;2052;-54
2022/10/20 02:10:10;;;;;;;;;;;;;;;;;;1050879;28;2943;-55
2022/10/20 02:10:49;;;;;;;;;;;;;;;;;;1052035;28;2383;-53
2022/10/20 02:11:23;;;;;;;;;;;;;;;;;;1049751;28;3435;-53
2022/10/20 02:11:57;;;;;;;;;;;;;;;;;;1037846;28;2315;-53
2022/10/20 02:12:30;;;;;;;;;;;;;;;;;;1037047;28;2167;-53
2022/10/20 02:13:04;;;;;;;;;;;;;;;;;;1037872;28;2192;-54
2022/10/20 02:13:36;;;;;;;;;;;;;;;;;;1042629;28;2037;-51
2022/10/20 02:14:09;;;;;;;;;;;;;;;;;;1045715;28;2235;-53
2022/10/20 02:14:40;;;;;;;;;;;;;;;;;;1045346;28;2089;-56
2022/10/20 02:15:13;;;;;;;;;;;;;;;;;;1044951;28;2661;-53
2022/10/20 02:15:45;;;;;;;;;;;;;;;;;;1050426;28;2642;-55
2022/10/20 02:16:19;;;;;;;;;;;;;;;;;;1054128;28;2087;-52
2022/10/20 02:16:56;;;;;;;;;;;;;;;;;;1053570;28;2122;-55
2022/10/20 02:17:28;;;;;;;;;;;;;;;;;;1051651;28;2040;-56
2022/10/20 02:18:00;;;;;;;;;;;;;;;;;;1042666;28;2737;-54
2022/10/20 02:18:34;;;;;;;;;;;;;;;;;;1045138;28;2132;-53
2022/10/20 02:19:06;;;;;;;;;;;;;;;;;;1044696;28;3000;-53
2022/10/20 02:19:39;;;;;;;;;;;;;;;;;;1045884;28;2105;-54
2022/10/20 02:20:10;;;;;;;;;;;;;;;;;;1051290;28;2949;-53
2022/10/20 02:20:43;;;;;;;;;;;;;;;;;;1048023;28;3083;-55
2022/10/20 02:21:15;;;;;;;;;;;;;;;;;;1046874;28;2658;-56
2022/10/20 02:21:46;;;;;;;;;;;;;;;;;;1049339;28;1616;-55
2022/10/20 02:22:17;;;;;;;;;;;;;;;;;;1049936;28;2694;-52
2022/10/20 02:22:48;;;;;;;;;;;;;;;;;;1051691;28;2964;-54
2022/10/20 02:23:19;;;;;;;;;;;;;;;;;;1047936;28;2126;-54
2022/10/20 02:23:51;;;;;;;;;;;;;;;;;;1049672;28;2328;-58
2022/10/20 02:24:23;;;;;;;;;;;;;;;;;;1043742;28;2695;-51
2022/10/20 02:24:54;;;;;;;;;;;;;;;;;;1044953;28;2574;-54
2022/10/20 02:25:24;;;;;;;;;;;;;;;;;;1048918;28;2686;-57
2022/10/20 02:25:56;;;;;;;;;;;;;;;;;;1048377;28;2140;-54
2022/10/20 02:26:26;;;;;;;;;;;;;;;;;;1053771;28;2376;-55
2022/10/20 02:27:00;;;;;;;;;;;;;;;;;;1048044;28;2353;-54
2022/10/20 02:27:34;;;;;;;;;;;;;;;;;;1048802;28;2172;-52
2022/10/20 02:28:07;;;;;;;;;;;;;;;;;;1047653;28;2603;-56
2022/10/20 02:28:39;;;;;;;;;;;;;;;;;;1049299;28;2210;-54
2022/10/20 02:29:14;;;;;;;;;;;;;;;;;;1052982;28;2591;-54
2022/10/20 02:29:49;;;;;;;;;;;;;;;;;;1047957;28;2598;-56
2022/10/20 02:30:20;;;;;;;;;;;;;;;;;;1046789;28;2877;-53
2022/10/20 02:30:50;;;;;;;;;;;;;;;;;;1049103;28;2459;-57
2022/10/20 02:31:21;;;;;;;;;;;;;;;;;;1048747;28;2033;-53
2022/10/20 02:31:51;;;;;;;;;;;;;;;;;;1047027;28;1689;-56
2022/10/20 02:32:22;;;;;;;;;;;;;;;;;;1048136;28;2394;-54
2022/10/20 02:32:53;;;;;;;;;;;;;;;;;;1049576;28;2997;-56
2022/10/20 02:33:23;;;;;;;;;;;;;;;;;;1052834;28;3061;-56
2022/10/20 02:33:55;;;;;;;;;;;;;;;;;;1052259;28;2406;-56
2022/10/20 02:34:26;;;;;;;;;;;;;;;;;;1051339;28;2107;-52
2022/10/20 02:34:56;;;;;;;;;;;;;;;;;;1047398;28;2458;-55
2022/10/20 02:35:30;;;;;;;;;;;;;;;;;;1047016;28;2461;-53
2022/10/20 02:36:03;;;;;;;;;;;;;;;;;;1048716;28;2454;-52
2022/10/20 02:36:36;;;;;;;;;;;;;;;;;;1049005;28;2166;-57
2022/10/20 02:37:06;;;;;;;;;;;;;;;;;;1053006;28;1427;-54
2022/10/20 02:37:37;;;;;;;;;;;;;;;;;;1053287;28;2343;-58
2022/10/20 02:38:07;;;;;;;;;;;;;;;;;;1051620;28;2797;-55
2022/10/20 02:38:38;;;;;;;;;;;;;;;;;;1048113;28;2475;-52
2022/10/20 02:39:15;;;;;;;;;;;;;;;;;;1049136;28;2730;-53
2022/10/20 02:39:45;;;;;;;;;;;;;;;;;;1047135;28;2095;-57
2022/10/20 02:40:15;;;;;;;;;;;;;;;;;;1048801;28;2040;-54
2022/10/20 02:40:46;;;;;;;;;;;;;;;;;;1050627;28;2453;-53
2022/10/20 02:41:16;;;;;;;;;;;;;;;;;;1052680;28;2532;-57
2022/10/20 02:41:47;;;;;;;;;;;;;;;;;;1051178;28;2166;-54
2022/10/20 02:42:17;;;;;;;;;;;;;;;;;;1048088;28;2159;-56
2022/10/20 02:42:48;;;;;;;;;;;;;;;;;;1049596;28;2415;-52
2022/10/20 02:43:18;;;;;;;;;;;;;;;;;;1049252;28;2764;-57
2022/10/20 02:43:49;;;;;;;;;;;;;;;;;;1046427;28;2596;-56
2022/10/20 02:44:19;;;;;;;;;;;;;;;;;;1048585;28;2057;-56
2022/10/20 02:44:50;;;;;;;;;;;;;;;;;;1048563;28;2693;-51
2022/10/20 02:45:20;;;;;;;;;;;;;;;;;;1049846;28;2612;-56
2022/10/20 02:45:50;;;;;;;;;;;;;;;;;;1051281;28;2355;-52
2022/10/20 02:46:21;;;;;;;;;;;;;;;;;;1055092;28;2687;-55
2022/10/20 02:46:52;;;;;;;;;;;;;;;;;;1054054;28;2555;-54
2022/10/20 02:47:23;;;;;;;;;;;;;;;;;;1049433;28;2664;-54
2022/10/20 02:47:53;;;;;;;;;;;;;;;;;;1048986;28;2300;-56
2022/10/20 02:48:24;;;;;;;;;;;;;;;;;;1050178;28;2032;-55
2022/10/20 02:48:54;;;;;;;;;;;;;;;;;;1048125;28;2617;-55
2022/10/20 02:49:26;;;;;;;;;;;;;;;;;;1052793;28;2521;-53
2022/10/20 02:49:56;;;;;;;;;;;;;;;;;;1053982;28;2374;-54
2022/10/20 02:50:26;;;;;;;;;;;;;;;;;;1055860;28;1668;-54
2022/10/20 02:50:57;;;;;;;;;;;;;;;;;;1050847;28;2443;-57
2022/10/20 02:51:27;;;;;;;;;;;;;;;;;;1054318;28;2421;-54
2022/10/20 02:51:57;;;;;;;;;;;;;;;;;;1052729;28;2542;-49
2022/10/20 02:52:28;;;;;;;;;;;;;;;;;;1051939;28;1721;-55
2022/10/20 02:52:59;;;;;;;;;;;;;;;;;;1047519;28;2383;-56
2022/10/20 02:53:29;;;;;;;;;;;;;;;;;;1048421;28;1850;-56
2022/10/20 02:53:59;;;;;;;;;;;;;;;;;;1047842;28;1914;-53
2022/10/20 02:54:30;;;;;;;;;;;;;;;;;;1049863;28;1988;-54
2022/10/20 02:55:01;;;;;;;;;;;;;;;;;;1054314;28;2063;-55
2022/10/20 02:55:31;;;;;;;;;;;;;;;;;;1054911;28;1928;-52
2022/10/20 02:56:02;;;;;;;;;;;;;;;;;;1050393;28;2210;-54
2022/10/20 02:56:32;;;;;;;;;;;;;;;;;;1049748;28;2410;-51
2022/10/20 02:57:03;;;;;;;;;;;;;;;;;;1048389;28;2636;-56
2022/10/20 02:57:33;;;;;;;;;;;;;;;;;;1046981;28;2383;-52
2022/10/20 02:58:03;;;;;;;;;;;;;;;;;;1053260;28;2542;-55
2022/10/20 02:58:33;;;;;;;;;;;;;;;;;;1053024;28;2532;-55
2022/10/20 02:59:04;;;;;;;;;;;;;;;;;;1052681;28;2291;-55
2022/10/20 02:59:34;;;;;;;;;;;;;;;;;;1053178;28;2184;-52
2022/10/20 03:00:05;;;;;;;;;;;;;;;;;;1051337;28;2589;-54
2022/10/20 03:00:35;;;;;;;;;;;;;;;;;;1053291;28;2241;-54
2022/10/20 03:01:05;;;;;;;;;;;;;;;;;;1053920;28;2654;-56
2022/10/20 03:01:36;;;;;;;;;;;;;;;;;;1051354;28;2402;-53
2022/10/20 03:02:06;;;;;;;;;;;;;;;;;;1049268;28;2357;-55
2022/10/20 03:02:37;;;;;;;;;;;;;;;;;;1049009;28;2415;-53
2022/10/20 03:03:14;;;;;;;;;;;;;;;;;;1042203;28;2656;-55
2022/10/20 03:03:44;;;;;;;;;;;;;;;;;;1044835;28;2391;-55
2022/10/20 03:04:15;;;;;;;;;;;;;;;;;;1048162;28;2148;-56
2022/10/20 03:04:58;;;;;;;;;;;;;;;;;;1047116;28;2333;-54
2022/10/20 03:05:40;;;;;;;;;;;;;;;;;;1047206;28;2202;-53
2022/10/20 03:06:12;;;;;;;;;;;;;;;;;;1048424;28;2425;-54
2022/10/20 03:06:42;;;;;;;;;;;;;;;;;;1048921;28;2841;-55
2022/10/20 03:07:13;;;;;;;;;;;;;;;;;;1047792;28;2019;-54
2022/10/20 03:07:43;;;;;;;;;;;;;;;;;;1048965;28;2387;-54
2022/10/20 03:08:14;;;;;;;;;;;;;;;;;;1049487;28;2410;-53
2022/10/20 03:08:44;;;;;;;;;;;;;;;;;;1047973;28;2645;-55
2022/10/20 03:09:14;;;;;;;;;;;;;;;;;;1048828;28;2241;-52
2022/10/20 03:09:45;;;;;;;;;;;;;;;;;;1049004;28;3230;-54
2022/10/20 03:10:15;;;;;;;;;;;;;;;;;;1045730;28;2125;-53
2022/10/20 03:10:46;;;;;;;;;;;;;;;;;;1049673;28;2310;-56
2022/10/20 03:11:16;;;;;;;;;;;;;;;;;;1048679;28;2664;-55
2022/10/20 03:11:46;;;;;;;;;;;;;;;;;;1049388;28;2049;-55
2022/10/20 03:12:17;;;;;;;;;;;;;;;;;;1047782;28;1816;-51
2022/10/20 03:12:47;;;;;;;;;;;;;;;;;;1045219;28;2264;-56
2022/10/20 03:13:18;;;;;;;;;;;;;;;;;;1042913;28;2558;-55
2022/10/20 03:13:48;;;;;;;;;;;;;;;;;;1045160;28;2367;-51
2022/10/20 03:14:19;;;;;;;;;;;;;;;;;;1045754;28;2745;-54
2022/10/20 03:14:49;;;;;;;;;;;;;;;;;;1046543;28;2219;-54
2022/10/20 03:15:19;;;;;;;;;;;;;;;;;;1048185;28;2288;-53
2022/10/20 03:15:50;;;;;;;;;;;;;;;;;;1047003;28;2481;-56
2022/10/20 03:16:21;;;;;;;;;;;;;;;;;;1050475;28;2037;-56
2022/10/20 03:16:51;;;;;;;;;;;;;;;;;;1048549;28;2681;-54
2022/10/20 03:17:21;;;;;;;;;;;;;;;;;;1048446;28;2232;-54
2022/10/20 03:17:52;;;;;;;;;;;;;;;;;;1047603;28;2463;-54
2022/10/20 03:18:22;;;;;;;;;;;;;;;;;;1049692;28;1941;-51
2022/10/20 03:18:52;;;;;;;;;;;;;;;;;;1048176;28;2311;-53
2022/10/20 03:19:23;;;;;;;;;;;;;;;;;;1046704;28;2458;-53
2022/10/20 03:19:53;;;;;;;;;;;;;;;;;;1047080;28;2197;-56
2022/10/20 03:20:24;;;;;;;;;;;;;;;;;;1050056;28;2334;-55
2022/10/20 03:20:54;;;;;;;;;;;;;;;;;;1048091;28;2199;-52
2022/10/20 03:21:25;;;;;;;;;;;;;;;;;;1044780;28;2072;-55
2022/10/20 03:21:55;;;;;;;;;;;;;;;;;;1041989;28;2432;-55
2022/10/20 03:22:25;;;;;;;;;;;;;;;;;;1042892;28;2506;-53
2022/10/20 03:22:56;;;;;;;;;;;;;;;;;;1044248;28;2488;-55
2022/10/20 03:23:27;;;;;;;;;;;;;;;;;;1049169;28;2404;-57
2022/10/20 03:23:58;;;;;;;;;;;;;;;;;;1048892;28;2179;-56
2022/10/20 03:24:28;;;;;;;;;;;;;;;;;;1048172;28;3839;-57
2022/10/20 03:24:58;;;;;;;;;;;;;;;;;;1048539;28;2351;-55
2022/10/20 03:25:30;;;;;;;;;;;;;;;;;;1047173;28;2915;-55
2022/10/20 03:26:04;;;;;;;;;;;;;;;;;;1049512;28;2323;-55
2022/10/20 03:26:35;;;;;;;;;;;;;;;;;;1051437;28;1341;-52
2022/10/20 03:27:05;;;;;;;;;;;;;;;;;;1048099;28;2349;-57
2022/10/20 03:27:36;;;;;;;;;;;;;;;;;;1049397;28;2434;-56
2022/10/20 03:28:06;;;;;;;;;;;;;;;;;;1046894;28;2456;-55
2022/10/20 03:28:37;;;;;;;;;;;;;;;;;;1052417;28;1453;-52
2022/10/20 03:29:07;;;;;;;;;;;;;;;;;;1050224;28;1938;-54
2022/10/20 03:29:45;;;;;;;;;;;;;;;;;;1050029;28;2761;-55
2022/10/20 03:30:16;;;;;;;;;;;;;;;;;;1048592;28;2244;-56
2022/10/20 03:30:47;;;;;;;;;;;;;;;;;;1046469;28;2951;-53
2022/10/20 03:31:18;;;;;;;;;;;;;;;;;;1046219;28;2157;-56
2022/10/20 03:31:48;;;;;;;;;;;;;;;;;;1047224;28;2650;-54
2022/10/20 03:32:19;;;;;;;;;;;;;;;;;;1045359;28;2520;-55
2022/10/20 03:32:49;;;;;;;;;;;;;;;;;;1049053;28;2470;-55
2022/10/20 03:33:20;;;;;;;;;;;;;;;;;;1048700;28;3740;-56
2022/10/20 03:33:51;;;;;;;;;;;;;;;;;;1046107;28;2475;-56
2022/10/20 03:34:21;;;;;;;;;;;;;;;;;;1046191;28;2491;-55
2022/10/20 03:34:51;;;;;;;;;;;;;;;;;;1050621;28;2760;-54
2022/10/20 03:35:22;;;;;;;;;;;;;;;;;;1044672;28;2326;-52
2022/10/20 03:35:52;;;;;;;;;;;;;;;;;;1048874;28;2097;-54
2022/10/20 03:36:23;;;;;;;;;;;;;;;;;;1046069;28;2545;-57
2022/10/20 03:36:53;;;;;;;;;;;;;;;;;;1044338;28;2058;-55
2022/10/20 03:37:24;;;;;;;;;;;;;;;;;;1047782;28;2955;-54
2022/10/20 03:37:54;;;;;;;;;;;;;;;;;;1049851;28;2181;-56
2022/10/20 03:38:25;;;;;;;;;;;;;;;;;;1048439;28;2257;-56
2022/10/20 03:38:55;;;;;;;;;;;;;;;;;;1048708;28;1787;-54
2022/10/20 03:39:25;;;;;;;;;;;;;;;;;;1048701;28;2213;-56
2022/10/20 03:39:56;;;;;;;;;;;;;;;;;;1047452;28;2710;-57
2022/10/20 03:40:26;;;;;;;;;;;;;;;;;;1047867;28;2290;-52
2022/10/20 03:40:57;;;;;;;;;;;;;;;;;;1047458;28;2918;-55
2022/10/20 03:41:28;;;;;;;;;;;;;;;;;;1048809;28;2663;-56
2022/10/20 03:41:58;;;;;;;;;;;;;;;;;;1044482;28;2397;-55
2022/10/20 03:42:29;;;;;;;;;;;;;;;;;;1043343;28;2307;-52
2022/10/20 03:42:59;;;;;;;;;;;;;;;;;;1045074;28;2207;-53
2022/10/20 03:43:29;;;;;;;;;;;;;;;;;;1045052;28;2279;-57
2022/10/20 03:44:01;;;;;;;;;;;;;;;;;;1047782;28;2675;-54
2022/10/20 03:44:32;;;;;;;;;;;;;;;;;;1042688;28;2155;-55
2022/10/20 03:45:02;;;;;;;;;;;;;;;;;;1043334;28;2040;-57
2022/10/20 03:45:33;;;;;;;;;;;;;;;;;;1041119;28;2558;-56
2022/10/20 03:46:04;;;;;;;;;;;;;;;;;;1046599;28;2350;-53
2022/10/20 03:46:34;;;;;;;;;;;;;;;;;;1048538;28;2565;-56
2022/10/20 03:47:05;;;;;;;;;;;;;;;;;;1050076;28;2479;-54
2022/10/20 03:47:36;;;;;;;;;;;;;;;;;;1048327;28;2388;-55
2022/10/20 03:48:06;;;;;;;;;;;;;;;;;;1048544;28;2738;-55
2022/10/20 03:48:37;;;;;;;;;;;;;;;;;;1048747;28;2460;-57
2022/10/20 03:49:07;;;;;;;;;;;;;;;;;;1048514;28;2155;-54